createdAt,value
2019-03-15T00:00:55.683Z,7.55
2019-03-15T00:03:24.606Z,5.10
2019-03-15T00:05:52.612Z,4.40
2019-03-15T00:08:21.019Z,4.15
2019-03-15T00:10:49.044Z,2.50
2019-03-15T00:13:17.005Z,4.95
2019-03-15T00:15:44.902Z,3.10
2019-03-15T00:18:13.105Z,4.22
2019-03-15T00:20:41.234Z,4.78
2019-03-15T00:23:09.156Z,4.40
2019-03-15T00:25:37.100Z,3.35
2019-03-15T00:28:05.170Z,3.50
2019-03-15T00:30:33.290Z,4.37
2019-03-15T00:33:01.346Z,3.35
2019-03-15T00:35:29.381Z,3.45
2019-03-15T00:37:57.347Z,2.77
2019-03-15T00:40:25.367Z,3.37
2019-03-15T00:42:53.467Z,3.57
2019-03-15T00:45:21.485Z,2.98
2019-03-15T00:47:49.633Z,2.20
2019-03-15T00:50:17.758Z,2.05
2019-03-15T00:52:45.797Z,2.07
2019-03-15T00:55:15.040Z,2.95
2019-03-15T00:57:42.891Z,4.40
2019-03-15T01:00:12.321Z,2.42
2019-03-15T01:02:40.448Z,3.00
2019-03-15T01:05:08.597Z,1.62
2019-03-15T01:07:36.715Z,3.08
2019-03-15T01:10:04.948Z,2.60
2019-03-15T01:12:33.033Z,2.12
2019-03-15T01:15:01.074Z,2.35
2019-03-15T01:17:29.114Z,2.62
2019-03-15T01:19:57.080Z,1.70
2019-03-15T01:22:25.187Z,3.77
2019-03-15T01:24:53.245Z,2.42
2019-03-15T01:27:21.251Z,1.70
2019-03-15T01:29:49.519Z,2.45
2019-03-15T01:32:17.611Z,2.92
2019-03-15T01:34:45.651Z,2.50
2019-03-15T01:37:13.792Z,3.02
2019-03-15T01:39:41.662Z,2.10
2019-03-15T01:42:09.675Z,1.60
2019-03-15T01:44:37.778Z,1.70
2019-03-15T01:47:05.912Z,1.98
2019-03-15T01:49:33.875Z,1.85
2019-03-15T01:52:01.896Z,1.85
2019-03-15T01:54:29.819Z,1.70
2019-03-15T01:57:10.418Z,2.22
2019-03-15T01:59:38.405Z,1.80
2019-03-15T02:02:06.536Z,6.65
2019-03-15T02:04:34.592Z,2.85
2019-03-15T02:07:02.711Z,2.42
2019-03-15T02:09:30.571Z,2.62
2019-03-15T02:11:58.507Z,2.55
2019-03-15T02:14:26.354Z,2.50
2019-03-15T02:16:54.444Z,3.77
2019-03-15T02:19:22.890Z,2.98
2019-03-15T02:21:50.992Z,3.53
2019-03-15T02:24:18.957Z,3.23
2019-03-15T02:26:48.483Z,3.58
2019-03-15T02:29:16.699Z,3.80
2019-03-15T02:31:44.713Z,3.40
2019-03-15T02:34:12.779Z,3.25
2019-03-15T02:36:40.937Z,3.30
2019-03-15T02:39:08.859Z,2.90
2019-03-15T02:41:36.999Z,2.33
2019-03-15T02:44:05.256Z,2.60
2019-03-15T02:46:33.366Z,2.60
2019-03-15T02:49:01.539Z,2.42
2019-03-15T02:51:29.521Z,2.20
2019-03-15T02:53:57.338Z,2.30
2019-03-15T02:56:25.507Z,2.23
2019-03-15T02:58:54.191Z,2.10
2019-03-15T03:01:22.413Z,2.17
2019-03-15T03:03:50.514Z,2.52
2019-03-15T03:06:18.457Z,2.37
2019-03-15T03:08:48.464Z,2.25
2019-03-15T03:11:16.499Z,2.00
2019-03-15T03:13:44.583Z,2.07
2019-03-15T03:16:12.662Z,1.65
2019-03-15T03:18:40.714Z,1.00
2019-03-15T03:21:08.736Z,1.12
2019-03-15T03:23:36.846Z,1.20
2019-03-15T03:26:05.137Z,1.20
2019-03-15T03:28:33.101Z,1.17
2019-03-15T03:31:01.140Z,2.55
2019-03-15T03:33:29.087Z,1.17
2019-03-15T03:35:57.012Z,1.30
2019-03-15T03:38:25.105Z,1.80
2019-03-15T03:40:53.174Z,1.93
2019-03-15T03:43:21.289Z,3.95
2019-03-15T03:45:49.305Z,1.30
2019-03-15T03:48:17.414Z,1.93
2019-03-15T03:50:45.467Z,2.65
2019-03-15T03:53:13.563Z,1.93
2019-03-15T03:55:42.226Z,4.15
2019-03-15T03:58:10.261Z,2.42
2019-03-15T04:00:38.313Z,1.67
2019-03-15T04:03:06.429Z,5.30
2019-03-15T04:05:36.868Z,2.45
2019-03-15T04:08:05.447Z,3.00
2019-03-15T04:10:33.508Z,3.40
2019-03-15T04:13:01.644Z,5.45
2019-03-15T04:15:29.679Z,3.42
2019-03-15T04:17:57.759Z,3.80
2019-03-15T04:20:25.701Z,5.50
2019-03-15T04:22:55.400Z,3.42
2019-03-15T04:25:23.601Z,5.25
2019-03-15T04:27:51.466Z,4.40
2019-03-15T04:30:19.450Z,4.83
2019-03-15T04:32:47.666Z,2.62
2019-03-15T04:35:15.725Z,2.87
2019-03-15T04:37:43.742Z,4.25
2019-03-15T04:40:11.839Z,1.47
2019-03-15T04:42:39.875Z,2.20
2019-03-15T04:45:08.186Z,4.35
2019-03-15T04:47:36.150Z,3.02
2019-03-15T04:50:04.665Z,5.47
2019-03-15T04:52:32.597Z,3.67
2019-03-15T04:55:00.818Z,2.27
2019-03-15T04:57:28.880Z,4.83
2019-03-15T04:59:56.904Z,7.50
2019-03-15T05:02:24.853Z,3.42
2019-03-15T05:04:52.982Z,5.73
2019-03-15T05:07:21.139Z,4.50
2019-03-15T05:09:49.271Z,4.97
2019-03-15T05:12:18.133Z,5.97
2019-03-15T05:14:46.232Z,7.30
2019-03-15T05:17:14.446Z,6.50
2019-03-15T05:19:42.544Z,5.55
2019-03-15T05:22:10.512Z,4.83
2019-03-15T05:24:38.630Z,5.17
2019-03-15T05:27:06.642Z,9.03
2019-03-15T05:29:34.773Z,8.38
2019-03-15T05:32:02.829Z,9.93
2019-03-15T05:34:30.832Z,7.23
2019-03-15T05:36:58.852Z,6.55
2019-03-15T05:39:27.751Z,9.28
2019-03-15T05:41:55.753Z,8.13
2019-03-15T05:44:23.849Z,7.10
2019-03-15T05:46:52.110Z,8.70
2019-03-15T05:49:20.053Z,7.87
2019-03-15T05:51:47.901Z,6.65
2019-03-15T05:54:15.947Z,5.92
2019-03-15T05:56:43.980Z,11.80
2019-03-15T05:59:12.084Z,8.60
2019-03-15T06:01:40.247Z,5.63
2019-03-15T06:04:08.345Z,7.35
2019-03-15T06:06:36.368Z,6.17
2019-03-15T06:09:05.620Z,6.13
2019-03-15T06:11:33.697Z,7.55
2019-03-15T06:14:01.781Z,5.87
2019-03-15T06:16:29.780Z,6.43
2019-03-15T06:18:57.970Z,7.30
2019-03-15T06:21:26.024Z,11.87
2019-03-15T06:23:54.148Z,6.90
2019-03-15T06:26:22.095Z,8.70
2019-03-15T06:28:50.591Z,5.60
2019-03-15T06:31:18.668Z,5.50
2019-03-15T06:33:46.728Z,7.90
2019-03-15T06:36:14.748Z,8.38
2019-03-15T06:38:42.625Z,6.20
2019-03-15T06:41:10.738Z,11.10
2019-03-15T06:43:38.790Z,6.75
2019-03-15T06:46:06.925Z,7.60
2019-03-15T06:48:35.026Z,5.25
2019-03-15T06:51:03.178Z,6.03
2019-03-15T06:53:31.199Z,7.05
2019-03-15T06:55:59.422Z,9.57
2019-03-15T06:58:27.266Z,5.03
2019-03-15T07:00:55.329Z,4.70
2019-03-15T07:03:23.254Z,6.17
2019-03-15T07:05:51.469Z,5.87
2019-03-15T07:08:19.500Z,7.10
2019-03-15T07:10:47.634Z,6.85
2019-03-15T07:13:15.562Z,4.33
2019-03-15T07:15:44.485Z,6.37
2019-03-15T07:18:12.687Z,8.93
2019-03-15T07:20:40.800Z,7.07
2019-03-15T07:23:08.820Z,4.80
2019-03-15T07:25:36.931Z,5.15
2019-03-15T07:28:04.931Z,4.63
2019-03-15T07:30:33.060Z,7.37
2019-03-15T07:33:01.003Z,6.70
2019-03-15T07:35:29.103Z,4.87
2019-03-15T07:37:57.145Z,5.73
2019-03-15T07:40:25.081Z,6.97
2019-03-15T07:43:04.572Z,6.97
2019-03-15T07:45:42.907Z,5.13
2019-03-15T07:48:21.695Z,4.07
2019-03-15T07:50:41.279Z,4.07
2019-03-15T07:53:09.240Z,4.53
2019-03-15T07:55:37.337Z,6.07
2019-03-15T07:58:05.766Z,4.60
2019-03-15T08:00:34.374Z,6.27
2019-03-15T08:03:02.440Z,4.63
2019-03-15T08:05:30.431Z,8.17
2019-03-15T08:07:58.472Z,6.55
2019-03-15T08:10:26.477Z,5.47
2019-03-15T08:12:55.224Z,7.20
2019-03-15T08:15:23.231Z,6.27
2019-03-15T08:17:51.190Z,4.27
2019-03-15T08:20:19.314Z,6.35
2019-03-15T08:22:47.398Z,6.07
2019-03-15T08:25:15.514Z,9.20
2019-03-15T08:27:43.482Z,8.53
2019-03-15T08:30:12.060Z,8.53
2019-03-15T08:32:43.509Z,5.00
2019-03-15T08:35:10.344Z,7.50
2019-03-15T08:37:38.457Z,3.83
2019-03-15T08:40:07.563Z,5.97
2019-03-15T08:42:35.659Z,5.43
2019-03-15T08:45:04.626Z,4.60
2019-03-15T08:47:34.847Z,4.73
2019-03-15T08:50:03.560Z,8.83
2019-03-15T08:52:31.488Z,5.10
2019-03-15T08:55:05.140Z,6.57
2019-03-15T08:57:29.449Z,8.83
2019-03-15T08:59:58.027Z,4.93
2019-03-15T09:02:27.094Z,5.17
2019-03-15T09:04:55.035Z,5.33
2019-03-15T09:07:22.969Z,7.20
2019-03-15T09:09:50.936Z,5.77
2019-03-15T09:12:19.036Z,8.07
2019-03-15T09:14:46.964Z,6.90
2019-03-15T09:17:14.883Z,5.63
2019-03-15T09:19:42.886Z,8.23
2019-03-15T09:22:10.994Z,9.07
2019-03-15T09:24:39.019Z,9.53
2019-03-15T09:27:10.255Z,5.87
2019-03-15T09:29:36.889Z,5.63
2019-03-15T09:32:09.059Z,5.30
2019-03-15T09:34:35.023Z,4.43
2019-03-15T09:37:03.150Z,6.30
2019-03-15T09:39:31.191Z,5.77
2019-03-15T09:41:59.196Z,8.87
2019-03-15T09:44:27.235Z,8.73
2019-03-15T09:46:55.293Z,6.10
2019-03-15T09:49:25.541Z,5.27
2019-03-15T09:51:53.531Z,5.87
2019-03-15T09:54:21.449Z,4.20
2019-03-15T09:56:49.552Z,4.33
2019-03-15T09:59:19.401Z,8.10
2019-03-15T10:01:47.634Z,7.20
2019-03-15T10:04:17.187Z,6.40
2019-03-15T10:06:45.589Z,6.67
2019-03-15T10:09:13.561Z,6.90
2019-03-15T10:11:41.685Z,4.70
2019-03-15T10:14:09.652Z,6.67
2019-03-15T10:16:37.671Z,4.13
2019-03-15T10:19:06.586Z,6.33
2019-03-15T10:21:34.715Z,5.47
2019-03-15T10:24:02.751Z,4.80
2019-03-15T10:26:30.825Z,7.43
2019-03-15T10:28:58.682Z,4.00
2019-03-15T10:31:27.043Z,10.37
2019-03-15T10:33:55.250Z,5.90
2019-03-15T10:36:23.213Z,4.70
2019-03-15T10:38:51.325Z,4.97
2019-03-15T10:41:19.164Z,5.27
2019-03-15T10:43:47.142Z,5.57
2019-03-15T10:46:15.841Z,6.63
2019-03-15T10:48:43.841Z,6.77
2019-03-15T10:51:11.832Z,5.07
2019-03-15T10:53:39.850Z,3.20
2019-03-15T10:56:07.793Z,8.43
2019-03-15T10:58:35.677Z,4.50
2019-03-15T11:01:03.738Z,5.57
2019-03-15T11:03:32.654Z,7.97
2019-03-15T11:06:00.586Z,7.43
2019-03-15T11:08:28.694Z,4.67
2019-03-15T11:10:56.612Z,3.83
2019-03-15T11:13:25.767Z,4.23
2019-03-15T11:15:54.393Z,8.37
2019-03-15T11:18:22.558Z,5.80
2019-03-15T11:20:50.677Z,6.73
2019-03-15T11:23:18.806Z,8.17
2019-03-15T11:25:46.758Z,6.40
2019-03-15T11:28:14.981Z,9.37
2019-03-15T11:30:43.916Z,4.73
2019-03-15T11:33:11.962Z,7.07
2019-03-15T11:35:39.939Z,5.93
2019-03-15T11:38:08.577Z,7.10
2019-03-15T11:40:38.192Z,3.73
2019-03-15T11:43:06.607Z,8.50
2019-03-15T11:45:34.728Z,6.37
2019-03-15T11:48:04.313Z,4.87
2019-03-15T11:50:32.943Z,5.27
2019-03-15T11:53:01.332Z,4.20
2019-03-15T11:55:29.357Z,6.20
2019-03-15T11:57:57.484Z,6.27
2019-03-15T12:00:25.663Z,10.53
2019-03-15T12:02:53.787Z,6.40
2019-03-15T12:05:22.344Z,6.17
2019-03-15T12:07:50.535Z,3.87
2019-03-15T12:10:18.563Z,4.40
2019-03-15T12:12:46.573Z,3.10
2019-03-15T12:15:14.613Z,5.70
2019-03-15T12:17:42.693Z,7.10
2019-03-15T12:20:10.829Z,6.07
2019-03-15T12:22:38.760Z,4.43
2019-03-15T12:25:14.325Z,4.30
2019-03-15T12:27:42.328Z,3.33
2019-03-15T12:30:10.369Z,3.57
2019-03-15T12:32:38.329Z,4.33
2019-03-15T12:35:08.466Z,4.00
2019-03-15T12:37:36.496Z,9.23
2019-03-15T12:40:05.388Z,3.80
2019-03-15T12:42:33.310Z,5.70
2019-03-15T12:45:01.475Z,4.43
2019-03-15T12:47:30.009Z,5.20
2019-03-15T12:49:58.009Z,7.90
2019-03-15T12:52:25.931Z,3.27
2019-03-15T12:54:53.898Z,3.13
2019-03-15T12:57:21.941Z,6.93
2019-03-15T12:59:50.055Z,4.10
2019-03-15T13:02:20.317Z,5.80
2019-03-15T13:04:51.939Z,2.43
2019-03-15T13:07:18.941Z,3.90
2019-03-15T13:09:47.015Z,5.70
2019-03-15T13:12:14.939Z,5.10
2019-03-15T13:14:42.961Z,5.20
2019-03-15T13:17:11.375Z,4.83
2019-03-15T13:19:39.267Z,5.47
2019-03-15T13:22:07.195Z,3.90
2019-03-15T13:24:35.296Z,1.90
2019-03-15T13:27:08.036Z,5.00
2019-03-15T13:29:36.173Z,4.77
2019-03-15T13:32:04.294Z,6.70
2019-03-15T13:34:32.411Z,4.43
2019-03-15T13:37:00.469Z,8.27
2019-03-15T13:39:28.461Z,7.30
2019-03-15T13:41:56.326Z,7.60
2019-03-15T13:44:26.226Z,6.90
2019-03-15T13:46:55.051Z,5.53
2019-03-15T13:49:23.057Z,3.43
2019-03-15T13:51:50.992Z,4.03
2019-03-15T13:54:19.002Z,6.17
2019-03-15T13:56:48.476Z,2.63
2019-03-15T13:59:16.614Z,3.97
2019-03-15T14:01:44.657Z,4.70
2019-03-15T14:04:12.649Z,3.73
2019-03-15T14:06:46.541Z,8.17
2019-03-15T14:09:14.640Z,5.47
2019-03-15T14:11:42.667Z,8.40
2019-03-15T14:14:10.647Z,5.10
2019-03-15T14:16:38.522Z,6.90
2019-03-15T14:19:06.753Z,5.67
2019-03-15T14:21:34.865Z,4.47
2019-03-15T14:24:03.069Z,5.97
2019-03-15T14:26:30.999Z,4.77
2019-03-15T14:29:09.372Z,5.00
2019-03-15T14:31:37.198Z,8.03
2019-03-15T14:34:05.217Z,5.37
2019-03-15T14:36:33.151Z,18.57
2019-03-15T14:39:01.490Z,30.23
2019-03-15T14:41:29.675Z,81.47
2019-03-15T14:43:57.754Z,236.40
2019-03-15T14:46:25.747Z,193.37
2019-03-15T14:48:53.729Z,17.40
2019-03-15T14:51:21.919Z,10.40
2019-03-15T14:53:49.842Z,8.07
2019-03-15T14:56:17.882Z,7.10
2019-03-15T14:58:45.863Z,6.90
2019-03-15T15:01:13.970Z,11.20
2019-03-15T15:03:41.900Z,14.17
2019-03-15T15:06:09.994Z,9.97
2019-03-15T15:08:37.955Z,8.47
2019-03-15T15:11:05.953Z,18.37
2019-03-15T15:13:34.010Z,27.40
2019-03-15T15:16:02.171Z,12.00
2019-03-15T15:18:30.176Z,12.53
2019-03-15T15:20:58.410Z,9.37
2019-03-15T15:23:26.386Z,9.90
2019-03-15T15:25:54.407Z,7.20
2019-03-15T15:28:22.448Z,8.53
2019-03-15T15:30:50.575Z,6.37
2019-03-15T15:33:19.334Z,13.07
2019-03-15T15:35:47.451Z,8.53
2019-03-15T15:38:15.412Z,9.27
2019-03-15T15:40:43.419Z,9.63
2019-03-15T15:43:11.773Z,9.57
2019-03-15T15:45:39.886Z,10.27
2019-03-15T15:48:08.009Z,10.63
2019-03-15T15:50:36.985Z,10.67
2019-03-15T15:53:05.843Z,8.93
2019-03-15T15:55:34.037Z,6.80
2019-03-15T15:58:02.074Z,4.23
2019-03-15T16:00:30.077Z,9.67
2019-03-15T16:02:58.129Z,7.40
2019-03-15T16:05:26.166Z,5.73
2019-03-15T16:07:56.556Z,5.00
2019-03-15T16:10:25.529Z,8.03
2019-03-15T16:12:53.512Z,81.87
2019-03-15T16:15:21.731Z,121.93
2019-03-15T16:17:49.808Z,167.63
2019-03-15T16:20:17.809Z,152.33
2019-03-15T16:22:45.983Z,84.57
2019-03-15T16:25:14.125Z,21.73
2019-03-15T16:27:42.015Z,14.30
2019-03-15T16:30:11.352Z,16.03
2019-03-15T16:32:39.394Z,13.90
2019-03-15T16:35:09.164Z,23.67
2019-03-15T16:37:37.165Z,23.13
2019-03-15T16:40:05.590Z,27.17
2019-03-15T16:42:33.602Z,21.23
2019-03-15T16:45:01.541Z,8.67
2019-03-15T16:47:29.575Z,13.90
2019-03-15T16:49:57.571Z,9.53
2019-03-15T16:52:25.484Z,11.20
2019-03-15T16:54:53.535Z,11.80
2019-03-15T16:57:21.571Z,11.33
2019-03-15T16:59:49.641Z,11.60
2019-03-15T17:02:17.779Z,8.07
2019-03-15T17:04:46.252Z,7.13
2019-03-15T17:07:15.166Z,8.47
2019-03-15T17:09:43.120Z,5.37
2019-03-15T17:12:11.343Z,7.97
2019-03-15T17:14:39.315Z,8.17
2019-03-15T17:17:07.432Z,15.60
2019-03-15T17:19:36.268Z,7.10
2019-03-15T17:22:05.136Z,8.07
2019-03-15T17:24:33.084Z,9.47
2019-03-15T17:27:01.189Z,6.77
2019-03-15T17:29:29.069Z,7.80
2019-03-15T17:31:58.100Z,5.60
2019-03-15T17:34:26.038Z,4.93
2019-03-15T17:37:06.177Z,5.97
2019-03-15T17:39:23.900Z,6.47
2019-03-15T17:41:52.186Z,5.63
2019-03-15T17:44:20.187Z,7.33
2019-03-15T17:46:48.164Z,4.10
2019-03-15T17:49:16.176Z,8.50
2019-03-15T17:51:44.352Z,4.93
2019-03-15T17:54:12.385Z,4.60
2019-03-15T17:56:40.486Z,6.80
2019-03-15T17:59:12.747Z,4.73
2019-03-15T18:01:38.517Z,5.13
2019-03-15T18:04:06.703Z,6.27
2019-03-15T18:06:43.834Z,6.07
2019-03-15T18:09:11.779Z,7.53
2019-03-15T18:11:39.900Z,8.07
2019-03-15T18:14:07.916Z,4.83
2019-03-15T18:16:35.962Z,41.50
2019-03-15T18:19:04.047Z,22.83
2019-03-15T18:21:32.156Z,22.10
2019-03-15T18:24:01.855Z,32.33
2019-03-15T18:26:30.608Z,21.70
2019-03-15T18:28:58.619Z,9.33
2019-03-15T18:31:29.894Z,13.70
2019-03-15T18:33:57.923Z,28.57
2019-03-15T18:36:25.997Z,59.13
2019-03-15T18:38:54.100Z,30.97
2019-03-15T18:41:22.757Z,31.03
2019-03-15T18:43:50.928Z,36.50
2019-03-15T18:46:18.972Z,58.60
2019-03-15T18:48:46.972Z,66.83
2019-03-15T18:51:15.075Z,67.27
2019-03-15T18:53:43.091Z,39.53
2019-03-15T18:56:11.336Z,32.10
2019-03-15T18:58:39.733Z,41.20
2019-03-15T19:01:07.676Z,17.27
2019-03-15T19:03:35.777Z,14.10
2019-03-15T19:06:03.831Z,12.50
2019-03-15T19:08:31.851Z,7.90
2019-03-15T19:10:59.938Z,6.00
2019-03-15T19:13:28.284Z,5.77
2019-03-15T19:15:56.321Z,6.70
2019-03-15T19:18:24.313Z,4.70
2019-03-15T19:20:52.448Z,7.43
2019-03-15T19:23:20.703Z,6.10
2019-03-15T19:25:49.373Z,6.73
2019-03-15T19:28:17.387Z,8.40
2019-03-15T19:30:45.437Z,13.77
2019-03-15T19:33:13.450Z,8.60
2019-03-15T19:35:41.307Z,11.20
2019-03-15T19:38:09.218Z,9.20
2019-03-15T19:40:49.629Z,10.40
2019-03-15T19:43:18.342Z,9.00
2019-03-15T19:45:46.399Z,16.87
2019-03-15T19:48:14.371Z,16.67
2019-03-15T19:50:42.290Z,13.03
2019-03-15T19:53:10.194Z,11.37
2019-03-15T19:55:38.128Z,7.27
2019-03-15T19:58:06.729Z,8.47
2019-03-15T20:00:34.792Z,9.43
2019-03-15T20:03:04.204Z,8.90
2019-03-15T20:05:32.271Z,6.47
2019-03-15T20:08:01.986Z,5.40
2019-03-15T20:10:30.030Z,5.73
2019-03-15T20:12:58.277Z,4.50
2019-03-15T20:15:26.215Z,5.40
2019-03-15T20:17:54.491Z,6.07
2019-03-15T20:20:22.621Z,2.90
2019-03-15T20:22:50.613Z,4.13
2019-03-15T20:25:19.506Z,5.80
2019-03-15T20:27:47.595Z,6.40
2019-03-15T20:30:21.500Z,5.63
2019-03-15T20:32:45.985Z,6.83
2019-03-15T20:35:14.110Z,5.17
2019-03-15T20:37:42.256Z,7.80
2019-03-15T20:40:10.524Z,7.57
2019-03-15T20:42:38.606Z,5.20
2019-03-15T20:45:08.427Z,7.13
2019-03-15T20:47:36.521Z,5.90
2019-03-15T20:50:05.251Z,7.17
2019-03-15T20:52:33.301Z,4.67
2019-03-15T20:55:01.402Z,6.90
2019-03-15T20:57:29.369Z,4.57
2019-03-15T20:59:57.503Z,6.20
2019-03-15T21:02:25.575Z,5.63
2019-03-15T21:04:53.599Z,9.33
2019-03-15T21:07:21.597Z,5.97
2019-03-15T21:09:49.754Z,5.03
2019-03-15T21:12:17.801Z,5.20
2019-03-15T21:14:46.531Z,5.30
2019-03-15T21:17:14.707Z,2.90
2019-03-15T21:19:43.043Z,3.33
2019-03-15T21:22:11.031Z,5.30
2019-03-15T21:24:39.073Z,3.93
2019-03-15T21:27:07.621Z,7.47
2019-03-15T21:29:35.649Z,6.57
2019-03-15T21:32:03.720Z,5.43
2019-03-15T21:34:31.883Z,7.77
2019-03-15T21:37:00.030Z,8.47
2019-03-15T21:39:28.054Z,8.10
2019-03-15T21:41:56.215Z,9.17
2019-03-15T21:44:24.698Z,9.97
2019-03-15T21:46:52.784Z,5.87
2019-03-15T21:49:20.953Z,7.83
2019-03-15T21:51:49.040Z,7.57
2019-03-15T21:54:17.259Z,8.00
2019-03-15T21:56:45.464Z,6.33
2019-03-15T21:59:13.577Z,6.20
2019-03-15T22:01:41.559Z,12.67
2019-03-15T22:04:10.094Z,10.17
2019-03-15T22:06:38.869Z,8.30
2019-03-15T22:09:07.316Z,9.23
2019-03-15T22:11:35.442Z,11.43
2019-03-15T22:14:04.353Z,11.50
2019-03-15T22:16:33.155Z,12.60
2019-03-15T22:19:01.134Z,9.27
2019-03-15T22:21:29.155Z,7.43
2019-03-15T22:23:57.316Z,9.27
2019-03-15T22:26:25.244Z,6.33
2019-03-15T22:28:53.784Z,7.23
2019-03-15T22:31:22.231Z,3.23
2019-03-15T22:33:50.564Z,2.53
2019-03-15T22:36:18.819Z,5.90
2019-03-15T22:38:46.963Z,3.60
2019-03-15T22:41:14.998Z,3.83
2019-03-15T22:43:43.048Z,5.03
2019-03-15T22:46:11.071Z,3.93
2019-03-15T22:48:41.836Z,5.50
2019-03-15T22:54:43.633Z,2.90
2019-03-15T22:57:11.618Z,2.07
2019-03-15T22:59:39.695Z,3.50
2019-03-15T23:02:08.030Z,5.00
2019-03-15T23:04:36.149Z,3.43
2019-03-15T23:07:05.114Z,6.57
2019-03-15T23:09:33.166Z,4.00
2019-03-15T23:12:01.416Z,8.50
2019-03-15T23:14:29.316Z,3.07
2019-03-15T23:16:57.240Z,4.07
2019-03-15T23:19:25.177Z,4.17
2019-03-15T23:21:53.369Z,6.90
2019-03-15T23:24:21.374Z,4.53
2019-03-15T23:26:49.480Z,5.73
2019-03-15T23:29:17.597Z,3.73
